Time;durP1;ratioP1;P1;durP2;ratioP2;P2;SDS_P1;SDS_P2;PMS_P1;PMS_P2;Temp;Humidity;BMP_temperature;BMP_pressure;BME280_temperature;BME280_humidity;BME280_pressure;Samples;Min_cycle;Max_cycle;Signal;HPM_P1;HPM_P2
2021/11/27 00:01:36;;;;;;;;;;;;;;;4.57;98.07;97700.97;1737791;81;21227;-85
2021/11/27 00:04:02;;;;;;;;;;;;;;;4.54;97.89;97706.55;1757017;80;20128;-87
2021/11/27 00:06:28;;;;;;;;;;;;;;;4.52;98.35;97700.66;1768756;80;20203;-86
2021/11/27 00:08:54;;;;;;;;;;;;;;;4.57;98.03;97695.73;1758120;80;20346;-84
2021/11/27 00:11:20;;;;;;;;;;;;;;;4.55;97.94;97689.86;1733648;81;20288;-85
2021/11/27 00:13:46;;;;;;;;;;;;;;;4.50;97.55;97692.20;1751678;81;21331;-86
2021/11/27 00:16:12;;;;;;;;;;;;;;;4.53;98.17;97686.62;1763891;80;20131;-85
2021/11/27 00:18:38;;;;;;;;;;;;;;;4.48;97.67;97683.23;1761228;80;20172;-86
2021/11/27 00:21:06;;;;;;;;;;;;;;;4.38;97.70;97677.94;1759928;80;20436;-85
2021/11/27 00:23:34;;;;;;;;;;;;;;;4.42;97.92;97670.08;1760225;80;20190;-86
2021/11/27 00:25:59;;;;;;;;;;;;;;;4.52;97.36;97671.92;1754796;80;20158;-85
2021/11/27 00:28:25;;;;;;;;;;;;;;;4.54;96.86;97667.34;1768325;79;20344;-85
2021/11/27 00:30:52;;;;;;;;;;;;;;;4.53;96.74;97666.22;1767428;80;20212;-86
2021/11/27 00:33:18;;;;;;;;;;;;;;;4.49;97.20;97669.69;1779977;80;20145;-86
2021/11/27 00:35:44;;;;;;;;;;;;;;;4.57;96.64;97659.63;1738491;82;20226;-85
2021/11/27 00:38:10;;;;;;;;;;;;;;;4.62;96.18;97663.84;1745900;81;21245;-85
2021/11/27 00:40:36;;;;;;;;;;;;;;;4.61;95.70;97660.39;1744417;80;20832;-84
2021/11/27 00:43:03;;;;;;;;;;;;;;;4.47;96.10;97655.97;1752866;80;20213;-85
2021/11/27 00:45:29;;;;;;;;;;;;;;;4.48;96.49;97647.16;1746020;80;20131;-85
2021/11/27 00:47:56;;;;;;;;;;;;;;;4.45;96.89;97650.92;1746260;81;20248;-83
2021/11/27 00:50:25;;;;;;;;;;;;;;;4.48;96.62;97641.92;1752818;81;21124;-85
2021/11/27 00:52:51;;;;;;;;;;;;;;;4.37;95.53;97639.77;1746914;81;20193;-82
2021/11/27 00:55:17;;;;;;;;;;;;;;;4.28;95.90;97635.90;1751320;81;20169;-84
2021/11/27 00:57:42;;;;;;;;;;;;;;;4.22;96.38;97641.83;1746704;81;20169;-84
2021/11/27 01:00:13;;;;;;;;;;;;;;;4.29;96.27;97633.61;1747514;81;20732;-85
2021/11/27 01:02:38;;;;;;;;;;;;;;;4.33;96.32;97630.64;1745571;81;22559;-85
2021/11/27 01:05:05;;;;;;;;;;;;;;;4.33;96.08;97629.34;1746077;81;20165;-85
2021/11/27 01:07:32;;;;;;;;;;;;;;;4.23;95.61;97630.41;1747390;81;20205;-85
2021/11/27 01:09:58;;;;;;;;;;;;;;;4.25;95.84;97619.28;1748973;81;20180;-83
2021/11/27 01:12:24;;;;;;;;;;;;;;;4.17;95.65;97614.14;1745101;81;20194;-85
2021/11/27 01:14:49;;;;;;;;;;;;;;;4.13;95.28;97614.16;1747530;81;21897;-87
2021/11/27 01:17:15;;;;;;;;;;;;;;;4.07;95.47;97613.09;1714317;81;20165;-86
2021/11/27 01:19:42;;;;;;;;;;;;;;;4.07;95.03;97610.95;1746727;81;20166;-84
2021/11/27 01:22:14;;;;;;;;;;;;;;;4.04;95.52;97607.39;1747733;80;20189;-84
2021/11/27 01:24:39;;;;;;;;;;;;;;;4.05;95.70;97601.99;1747827;81;20188;-83
2021/11/27 01:27:05;;;;;;;;;;;;;;;4.07;95.46;97597.90;1749291;80;21130;-85
2021/11/27 01:29:32;;;;;;;;;;;;;;;4.01;95.50;97592.08;1748230;80;20351;-86
2021/11/27 01:31:58;;;;;;;;;;;;;;;4.02;95.54;97592.41;1750948;81;20207;-84
2021/11/27 01:34:23;;;;;;;;;;;;;;;4.09;95.63;97590.72;1746066;81;20435;-85
2021/11/27 01:36:49;;;;;;;;;;;;;;;4.06;95.34;97593.69;1733399;81;20138;-84
2021/11/27 01:39:15;;;;;;;;;;;;;;;4.02;95.13;97590.59;1747580;81;21964;-84
2021/11/27 01:41:40;;;;;;;;;;;;;;;4.07;95.56;97591.38;1748804;80;20179;-83
2021/11/27 01:44:06;;;;;;;;;;;;;;;4.04;95.14;97593.03;1746528;81;20166;-83
2021/11/27 01:46:31;;;;;;;;;;;;;;;4.00;95.56;97589.17;1748200;81;20128;-84
2021/11/27 01:49:01;;;;;;;;;;;;;;;3.90;95.36;97587.63;1740113;81;20211;-84
2021/11/27 01:51:26;;;;;;;;;;;;;;;3.91;95.44;97591.84;1751356;81;21105;-83
2021/11/27 01:53:55;;;;;;;;;;;;;;;3.75;95.81;97581.55;1746781;81;20283;-84
2021/11/27 01:56:24;;;;;;;;;;;;;;;3.71;96.50;97582.88;1750805;81;20157;-83
2021/11/27 01:58:51;;;;;;;;;;;;;;;3.64;96.75;97576.76;1746422;81;20224;-83
2021/11/27 02:01:20;;;;;;;;;;;;;;;3.71;96.72;97577.66;1746135;81;20171;-84
2021/11/27 02:03:48;;;;;;;;;;;;;;;3.66;96.76;97577.39;1750516;81;21983;-83
2021/11/27 02:06:14;;;;;;;;;;;;;;;3.62;97.29;97581.33;1746855;81;20291;-83
2021/11/27 02:08:40;;;;;;;;;;;;;;;3.58;97.23;97576.45;1742772;80;20199;-82
2021/11/27 02:11:08;;;;;;;;;;;;;;;3.59;97.64;97575.48;1740914;80;20491;-82
2021/11/27 02:13:33;;;;;;;;;;;;;;;3.64;97.31;97565.02;1739574;81;20137;-82
2021/11/27 02:15:59;;;;;;;;;;;;;;;3.73;97.01;97573.09;1744206;82;21186;-82
2021/11/27 02:18:25;;;;;;;;;;;;;;;3.85;97.04;97569.05;1741646;82;20754;-82
2021/11/27 02:21:00;;;;;;;;;;;;;;;3.76;96.00;97573.55;1749379;81;20165;-82
2021/11/27 02:23:29;;;;;;;;;;;;;;;3.76;96.14;97577.97;1745568;81;20187;-84
2021/11/27 02:25:56;;;;;;;;;;;;;;;3.83;95.95;97573.64;1745306;81;20166;-83
2021/11/27 02:28:22;;;;;;;;;;;;;;;3.78;95.53;97570.76;1746474;81;21162;-84
2021/11/27 02:30:47;;;;;;;;;;;;;;;3.78;95.97;97557.71;1742218;81;20148;-84
2021/11/27 02:33:13;;;;;;;;;;;;;;;3.85;95.93;97563.83;1742523;81;20258;-84
2021/11/27 02:35:40;;;;;;;;;;;;;;;3.87;95.38;97560.56;1736904;81;21091;-84
2021/11/27 02:38:05;;;;;;;;;;;;;;;3.48;97.66;97555.02;1724855;81;20190;-84
2021/11/27 02:40:32;;;;;;;;;;;;;;;3.90;96.47;97550.23;1741013;81;21833;-84
2021/11/27 02:42:57;;;;;;;;;;;;;;;3.90;95.38;97553.68;1725969;81;20154;-84
2021/11/27 02:45:26;;;;;;;;;;;;;;;3.89;95.21;97555.16;1742135;80;20167;-83
2021/11/27 02:47:52;;;;;;;;;;;;;;;3.80;94.74;97546.59;1729499;81;20973;-83
2021/11/27 02:50:17;;;;;;;;;;;;;;;3.88;95.20;97553.03;1725881;81;20138;-82
2021/11/27 02:52:43;;;;;;;;;;;;;;;3.89;94.72;97554.66;1706549;81;21805;-82
2021/11/27 02:55:08;;;;;;;;;;;;;;;3.78;94.81;97553.29;1737815;81;20165;-82
2021/11/27 02:57:35;;;;;;;;;;;;;;;3.78;94.98;97553.29;1747030;81;20144;-82
2021/11/27 03:00:05;;;;;;;;;;;;;;;3.44;96.79;97553.74;1741426;81;20227;-82
2021/11/27 03:02:32;;;;;;;;;;;;;;;3.38;97.39;97551.83;1744642;81;20185;-82
2021/11/27 03:04:58;;;;;;;;;;;;;;;3.32;97.41;97547.31;1742855;80;21101;-82
2021/11/27 03:07:23;;;;;;;;;;;;;;;3.35;97.74;97545.66;1734037;81;20471;-82
2021/11/27 03:09:49;;;;;;;;;;;;;;;3.42;97.56;97550.50;1738176;81;20139;-83
2021/11/27 03:12:15;;;;;;;;;;;;;;;3.37;97.65;97547.12;1735621;81;20151;-83
2021/11/27 03:14:40;;;;;;;;;;;;;;;3.32;97.71;97553.33;1752671;81;20514;-83
2021/11/27 03:17:07;;;;;;;;;;;;;;;3.18;97.87;97553.58;1745725;81;21018;-83
2021/11/27 03:19:35;;;;;;;;;;;;;;;3.12;98.46;97556.88;1726654;81;20166;-83
2021/11/27 03:22:00;;;;;;;;;;;;;;;3.10;98.63;97557.55;1745846;81;20222;-83
2021/11/27 03:24:28;;;;;;;;;;;;;;;3.13;98.85;97549.39;1740878;81;20176;-83
2021/11/27 03:26:56;;;;;;;;;;;;;;;3.13;98.49;97549.39;1734572;81;20129;-83
2021/11/27 03:29:21;;;;;;;;;;;;;;;3.06;99.19;97545.84;1741689;81;20094;-84
2021/11/27 03:31:47;;;;;;;;;;;;;;;3.16;99.10;97550.84;1747248;81;20261;-83
2021/11/27 03:34:17;;;;;;;;;;;;;;;3.18;99.07;97552.28;1749123;81;20266;-83
2021/11/27 03:36:44;;;;;;;;;;;;;;;3.49;98.84;97548.80;1752550;81;20109;-83
2021/11/27 03:39:11;;;;;;;;;;;;;;;3.48;97.13;97551.11;1753814;81;20132;-83
2021/11/27 03:41:36;;;;;;;;;;;;;;;3.31;98.14;97550.89;1750739;81;22048;-84
2021/11/27 03:44:02;;;;;;;;;;;;;;;3.27;98.15;97556.16;1728067;81;20158;-84
2021/11/27 03:46:28;;;;;;;;;;;;;;;3.22;98.33;97563.20;1749270;81;20179;-84
2021/11/27 03:48:54;;;;;;;;;;;;;;;3.24;98.22;97562.02;1746266;81;20126;-84
2021/11/27 03:51:22;;;;;;;;;;;;;;;3.16;98.39;97564.69;1752969;81;20206;-84
2021/11/27 03:53:47;;;;;;;;;;;;;;;3.08;98.77;97567.36;1758410;81;21263;-84
2021/11/27 03:56:21;;;;;;;;;;;;;;;3.12;98.09;97566.01;1752733;81;20185;-83
2021/11/27 03:58:48;;;;;;;;;;;;;;;3.08;98.69;97566.52;1748007;81;20161;-85
2021/11/27 04:01:15;;;;;;;;;;;;;;;3.02;98.53;97564.94;1746377;81;20146;-85
2021/11/27 04:03:44;;;;;;;;;;;;;;;3.05;98.90;97572.41;1721635;81;20141;-86
2021/11/27 04:06:11;;;;;;;;;;;;;;;3.02;99.01;97575.86;1753021;81;21132;-86
2021/11/27 04:08:37;;;;;;;;;;;;;;;3.01;99.19;97575.53;1755479;81;20165;-85
2021/11/27 04:11:02;;;;;;;;;;;;;;;2.83;100.00;97575.30;1752188;81;20130;-86
2021/11/27 04:13:29;;;;;;;;;;;;;;;2.83;100.00;97579.22;1748114;81;20254;-84
2021/11/27 04:15:55;;;;;;;;;;;;;;;2.87;100.00;97575.77;1755404;81;20450;-84
2021/11/27 04:18:20;;;;;;;;;;;;;;;2.82;100.00;97576.28;1752829;81;21160;-84
2021/11/27 04:20:48;;;;;;;;;;;;;;;2.79;100.00;97584.44;1751969;81;20306;-84
2021/11/27 04:23:14;;;;;;;;;;;;;;;2.38;100.00;97581.16;1747344;81;20233;-85
2021/11/27 04:25:41;;;;;;;;;;;;;;;2.21;100.00;97592.95;1750316;81;20249;-84
2021/11/27 04:28:09;;;;;;;;;;;;;;;2.14;100.00;97588.90;1741229;80;20147;-84
2021/11/27 04:30:34;;;;;;;;;;;;;;;1.96;100.00;97593.48;1756638;81;21125;-85
2021/11/27 04:33:02;;;;;;;;;;;;;;;1.89;100.00;97596.41;1751806;81;20271;-85
2021/11/27 04:35:28;;;;;;;;;;;;;;;1.88;100.00;97596.07;1753971;81;20510;-85
2021/11/27 04:37:56;;;;;;;;;;;;;;;1.85;100.00;97601.60;1762897;80;20210;-85
2021/11/27 04:40:25;;;;;;;;;;;;;;;1.84;100.00;97601.30;1769379;79;20211;-86
2021/11/27 04:42:50;;;;;;;;;;;;;;;1.82;100.00;97607.13;1768058;80;20181;-85
2021/11/27 04:45:16;;;;;;;;;;;;;;;1.79;100.00;97611.70;1783511;79;20113;-84
2021/11/27 04:47:42;;;;;;;;;;;;;;;1.74;100.00;97616.58;1749383;81;20174;-84
2021/11/27 04:50:08;;;;;;;;;;;;;;;1.74;100.00;97615.28;1741334;80;20253;-84
2021/11/27 04:52:36;;;;;;;;;;;;;;;1.70;100.00;97625.68;1738622;81;20136;-84
2021/11/27 04:55:02;;;;;;;;;;;;;;;1.76;100.00;97624.23;1749889;80;20117;-84
2021/11/27 04:57:28;;;;;;;;;;;;;;;1.66;100.00;97619.16;1753591;81;20222;-84
2021/11/27 04:59:54;;;;;;;;;;;;;;;1.73;100.00;97624.55;1751243;81;20179;-85
2021/11/27 05:02:19;;;;;;;;;;;;;;;1.76;100.00;97622.43;1753022;80;20104;-84
2021/11/27 05:04:45;;;;;;;;;;;;;;;1.73;100.00;97627.95;1749936;81;20142;-85
2021/11/27 05:07:10;;;;;;;;;;;;;;;1.52;100.00;97626.31;1747981;81;21097;-85
2021/11/27 05:09:36;;;;;;;;;;;;;;;1.61;100.00;97625.34;1754126;81;20354;-83
2021/11/27 05:12:01;;;;;;;;;;;;;;;1.56;100.00;97627.62;1743055;81;20177;-84
2021/11/27 05:14:27;;;;;;;;;;;;;;;1.58;100.00;97621.77;1785119;79;20134;-84
2021/11/27 05:16:53;;;;;;;;;;;;;;;1.57;100.00;97617.53;1769265;80;20120;-84
2021/11/27 05:19:18;;;;;;;;;;;;;;;1.61;100.00;97624.84;1784025;79;20952;-84
2021/11/27 05:21:45;;;;;;;;;;;;;;;1.71;100.00;97629.08;1776832;80;20117;-84
2021/11/27 05:24:11;;;;;;;;;;;;;;;1.64;100.00;97627.62;1764166;79;20119;-84
2021/11/27 05:26:39;;;;;;;;;;;;;;;1.66;100.00;97621.77;1763670;80;21177;-84
2021/11/27 05:29:05;;;;;;;;;;;;;;;1.64;100.00;97628.92;1761732;79;20154;-84
2021/11/27 05:31:30;;;;;;;;;;;;;;;1.63;100.00;97622.09;1757001;80;21908;-84
2021/11/27 05:36:31;;;;;;;;;;;;;;;1.64;100.00;97628.92;1729283;82;20505;-84
2021/11/27 05:38:57;;;;;;;;;;;;;;;1.65;100.00;97640.97;1721128;82;20243;-84
2021/11/27 05:41:23;;;;;;;;;;;;;;;1.66;100.00;97638.67;1717879;82;20171;-84
2021/11/27 05:43:48;;;;;;;;;;;;;;;1.70;100.00;97650.39;1723358;82;21154;-84
2021/11/27 05:46:14;;;;;;;;;;;;;;;1.68;100.00;97653.66;1708097;82;20167;-83
2021/11/27 05:48:39;;;;;;;;;;;;;;;1.67;100.00;97666.82;1757776;80;20136;-84
2021/11/27 05:51:07;;;;;;;;;;;;;;;1.63;100.00;97668.91;1752818;80;20462;-84
2021/11/27 05:53:33;;;;;;;;;;;;;;;1.56;100.00;97676.55;1753940;80;20224;-84
2021/11/27 05:55:59;;;;;;;;;;;;;;;1.57;100.00;97679.95;1752455;80;20552;-84
2021/11/27 05:58:25;;;;;;;;;;;;;;;1.54;100.00;97684.17;1758703;80;20260;-84
2021/11/27 06:00:51;;;;;;;;;;;;;;;1.46;100.00;97693.27;1763284;80;20459;-83
2021/11/27 06:03:16;;;;;;;;;;;;;;;1.43;100.00;97696.52;1737531;80;20144;-85
2021/11/27 06:05:43;;;;;;;;;;;;;;;1.41;100.00;97691.97;1754145;80;20272;-84
2021/11/27 06:08:12;;;;;;;;;;;;;;;1.46;100.00;97698.47;1750377;80;21128;-84
2021/11/27 06:10:42;;;;;;;;;;;;;;;1.40;100.00;97704.64;1753606;80;20147;-84
2021/11/27 06:13:07;;;;;;;;;;;;;;;1.32;100.00;97707.22;1748253;80;20128;-84
2021/11/27 06:15:33;;;;;;;;;;;;;;;1.38;100.00;97713.09;1761405;80;20112;-84
2021/11/27 06:17:59;;;;;;;;;;;;;;;1.34;100.00;97709.66;1761109;80;20468;-84
2021/11/27 06:20:25;;;;;;;;;;;;;;;1.32;100.00;97713.73;1751166;80;21948;-84
2021/11/27 06:22:50;;;;;;;;;;;;;;;1.39;100.00;97721.20;1748638;80;20205;-84
2021/11/27 06:25:16;;;;;;;;;;;;;;;1.31;100.00;97724.28;1758715;80;20173;-84
2021/11/27 06:27:41;;;;;;;;;;;;;;;1.25;100.00;97743.41;1752708;80;20163;-83
2021/11/27 06:30:07;;;;;;;;;;;;;;;1.18;100.00;97750.69;1747012;80;20172;-84
2021/11/27 06:32:37;;;;;;;;;;;;;;;1.34;100.00;97744.27;1727233;81;20934;-83
2021/11/27 06:35:03;;;;;;;;;;;;;;;1.26;100.00;97763.75;1756904;81;20163;-83
2021/11/27 06:37:33;;;;;;;;;;;;;;;1.36;100.00;97763.13;1761691;80;20176;-83
2021/11/27 06:39:59;;;;;;;;;;;;;;;1.29;100.00;97773.00;1754428;80;20137;-83
2021/11/27 06:42:27;;;;;;;;;;;;;;;1.38;100.00;97770.30;1752121;81;20162;-82
2021/11/27 06:44:55;;;;;;;;;;;;;;;1.43;100.00;97769.83;1779253;80;21133;-84
2021/11/27 06:47:22;;;;;;;;;;;;;;;1.41;100.00;97775.19;1736893;81;20130;-84
2021/11/27 06:49:49;;;;;;;;;;;;;;;1.40;100.00;97788.34;1745708;81;20107;-84
2021/11/27 06:52:19;;;;;;;;;;;;;;;1.29;100.00;97790.73;1759312;80;20186;-85
2021/11/27 06:54:46;;;;;;;;;;;;;;;1.28;100.00;97790.39;1764921;80;20199;-84
2021/11/27 06:57:14;;;;;;;;;;;;;;;1.28;100.00;97793.00;1751478;80;21161;-84
2021/11/27 06:59:41;;;;;;;;;;;;;;;1.21;100.00;97791.98;1757627;80;20228;-84
2021/11/27 07:02:07;;;;;;;;;;;;;;;1.18;100.00;97807.88;1749015;80;20118;-84
2021/11/27 07:04:36;;;;;;;;;;;;;;;1.23;100.00;97807.76;1752121;80;20547;-84
2021/11/27 07:07:02;;;;;;;;;;;;;;;1.15;100.00;97813.39;1731870;80;20095;-83
2021/11/27 07:09:27;;;;;;;;;;;;;;;1.10;100.00;97820.34;1754752;80;21177;-84
2021/11/27 07:11:58;;;;;;;;;;;;;;;1.18;100.00;97818.28;1761293;80;20179;-83
2021/11/27 07:14:23;;;;;;;;;;;;;;;1.22;100.00;97824.31;1723950;81;20224;-84
2021/11/27 07:16:49;;;;;;;;;;;;;;;1.13;100.00;97830.93;1756916;80;20594;-83
2021/11/27 07:19:15;;;;;;;;;;;;;;;1.15;100.00;97834.19;1750619;81;20138;-83
2021/11/27 07:21:40;;;;;;;;;;;;;;;1.07;100.00;97840.98;1748287;81;21217;-83
2021/11/27 07:24:06;;;;;;;;;;;;;;;1.10;100.00;97855.44;1716223;81;20134;-83
2021/11/27 07:26:31;;;;;;;;;;;;;;;1.17;100.00;97853.06;1752535;81;20139;-85
2021/11/27 07:28:58;;;;;;;;;;;;;;;1.17;100.00;97854.36;1739856;81;20248;-86
2021/11/27 07:31:24;;;;;;;;;;;;;;;1.37;100.00;97868.77;1753422;80;20171;-90
2021/11/27 07:33:50;;;;;;;;;;;;;;;1.45;100.00;97859.39;1753674;80;21073;-84
2021/11/27 07:36:16;;;;;;;;;;;;;;;1.58;100.00;97862.37;1754514;80;20161;-85
2021/11/27 07:38:41;;;;;;;;;;;;;;;1.47;100.00;97867.36;1750209;80;20237;-84
2021/11/27 07:41:07;;;;;;;;;;;;;;;1.50;100.00;97870.14;1758762;81;20143;-85
2021/11/27 07:43:33;;;;;;;;;;;;;;;1.49;100.00;97871.09;1750841;80;20189;-85
2021/11/27 07:46:00;;;;;;;;;;;;;;;1.36;100.00;97878.03;1756081;80;22491;-85
2021/11/27 07:48:31;;;;;;;;;;;;;;;1.50;100.00;97882.65;1748830;81;20124;-84
2021/11/27 07:50:58;;;;;;;;;;;;;;;1.55;100.00;97882.19;1749989;80;20314;-84
2021/11/27 07:53:25;;;;;;;;;;;;;;;1.54;100.00;97890.95;1756466;81;20182;-86
2021/11/27 07:55:50;;;;;;;;;;;;;;;1.49;100.00;97898.41;1753194;81;20174;-84
2021/11/27 07:58:16;;;;;;;;;;;;;;;1.53;100.00;97894.54;1751292;81;21250;-87
2021/11/27 08:00:42;;;;;;;;;;;;;;;1.49;100.00;97882.80;1757379;80;20151;-85
2021/11/27 08:03:07;;;;;;;;;;;;;;;1.55;100.00;97886.09;1760550;81;20515;-85
2021/11/27 08:05:33;;;;;;;;;;;;;;;1.54;100.00;97890.95;1757680;80;20116;-84
2021/11/27 08:08:00;;;;;;;;;;;;;;;1.58;100.00;97901.39;1761154;80;20128;-84
2021/11/27 08:10:26;;;;;;;;;;;;;;;1.60;100.00;97883.36;1760243;80;21145;-84
2021/11/27 08:12:51;;;;;;;;;;;;;;;1.66;100.00;97892.31;1750933;81;20601;-83
2021/11/27 08:15:17;;;;;;;;;;;;;;;1.77;100.00;97899.87;1762093;81;20128;-84
2021/11/27 08:17:43;;;;;;;;;;;;;;;1.68;100.00;97890.39;1756068;80;20937;-84
2021/11/27 08:20:09;;;;;;;;;;;;;;;1.74;100.00;97887.17;1754788;80;20407;-83
2021/11/27 08:22:36;;;;;;;;;;;;;;;1.82;100.00;97884.25;1759383;80;20518;-84
2021/11/27 08:25:02;;;;;;;;;;;;;;;1.78;100.00;97888.47;1760530;80;20196;-88
2021/11/27 08:27:29;;;;;;;;;;;;;;;1.82;100.00;97925.42;1752926;80;20314;-85
2021/11/27 08:29:55;;;;;;;;;;;;;;;1.74;100.00;97914.49;1738861;80;20105;-84
2021/11/27 08:32:21;;;;;;;;;;;;;;;1.68;100.00;97916.88;1713642;81;20201;-84
2021/11/27 08:34:50;;;;;;;;;;;;;;;1.86;100.00;97910.30;1693522;83;21243;-85
2021/11/27 08:37:16;;;;;;;;;;;;;;;1.84;100.00;97909.16;1708404;81;20593;-83
2021/11/27 08:39:43;;;;;;;;;;;;;;;1.89;100.00;97917.80;1706770;81;20613;-84
2021/11/27 08:42:11;;;;;;;;;;;;;;;1.88;100.00;97946.09;1711772;83;20490;-85
2021/11/27 08:44:37;;;;;;;;;;;;;;;1.86;100.00;97927.22;1713378;83;20145;-85
2021/11/27 08:47:03;;;;;;;;;;;;;;;1.95;100.00;97922.38;1707902;82;20544;-85
2021/11/27 08:49:29;;;;;;;;;;;;;;;2.02;100.00;97918.19;1710439;81;20252;-84
2021/11/27 08:51:55;;;;;;;;;;;;;;;1.85;100.00;97925.58;1710761;81;20200;-84
2021/11/27 08:54:20;;;;;;;;;;;;;;;1.77;100.00;97930.25;1713177;83;20544;-84
2021/11/27 08:56:46;;;;;;;;;;;;;;;1.92;100.00;97920.90;1712592;82;20149;-84
2021/11/27 08:59:13;;;;;;;;;;;;;;;1.92;100.00;97926.59;1713480;82;21072;-84
2021/11/27 09:01:41;;;;;;;;;;;;;;;1.95;100.00;97935.39;1715333;82;20132;-82
2021/11/27 09:04:06;;;;;;;;;;;;;;;1.79;100.00;97936.95;1712235;83;20232;-83
2021/11/27 09:06:32;;;;;;;;;;;;;;;1.79;100.00;97949.95;1711542;83;20556;-84
2021/11/27 09:09:01;;;;;;;;;;;;;;;1.94;100.00;97950.20;1713904;83;20131;-83
2021/11/27 09:11:31;;;;;;;;;;;;;;;1.88;100.00;97970.81;1713191;82;21142;-85
2021/11/27 09:13:54;;;;;;;;;;;;;;;1.96;100.00;97962.58;1708124;83;20490;-83
2021/11/27 09:16:20;;;;;;;;;;;;;;;1.90;100.00;97968.89;1688486;83;20225;-82
2021/11/27 09:18:47;;;;;;;;;;;;;;;1.86;100.00;97975.36;1715815;81;21166;-84
2021/11/27 09:21:17;;;;;;;;;;;;;;;1.56;100.00;97976.17;1711278;82;20499;-85
2021/11/27 09:23:42;;;;;;;;;;;;;;;1.56;100.00;97977.47;1690287;83;21059;-87
2021/11/27 09:26:08;;;;;;;;;;;;;;;1.45;100.00;97998.53;1711538;83;21194;-86
2021/11/27 09:28:34;;;;;;;;;;;;;;;1.41;100.00;97983.23;1714138;83;20138;-86
2021/11/27 09:31:01;;;;;;;;;;;;;;;1.51;100.00;97988.79;1727400;81;20173;-85
2021/11/27 09:33:29;;;;;;;;;;;;;;;1.45;100.00;97987.63;1714318;81;20617;-85
2021/11/27 09:36:02;;;;;;;;;;;;;;;1.35;100.00;97978.63;1766172;80;21108;-85
2021/11/27 09:38:24;;;;;;;;;;;;;;;1.53;100.00;97975.17;1734716;80;20149;-86
2021/11/27 09:40:52;;;;;;;;;;;;;;;1.60;100.00;97977.47;1729448;81;20288;-85
2021/11/27 09:43:19;;;;;;;;;;;;;;;1.50;100.00;97978.08;1727623;81;20159;-85
2021/11/27 09:45:47;;;;;;;;;;;;;;;1.61;100.00;97975.22;1765922;80;20159;-85
2021/11/27 09:48:13;;;;;;;;;;;;;;;1.57;100.00;97982.52;1756903;80;21121;-83
2021/11/27 09:50:39;;;;;;;;;;;;;;;1.66;100.00;97987.27;1733084;80;20818;-83
2021/11/27 09:53:06;;;;;;;;;;;;;;;1.55;100.00;97992.73;1761935;80;20184;-84
2021/11/27 09:55:33;;;;;;;;;;;;;;;1.60;100.00;97990.48;1758793;80;20481;-84
2021/11/27 09:57:59;;;;;;;;;;;;;;;1.70;100.00;97996.91;1770163;80;20134;-83
2021/11/27 10:00:25;;;;;;;;;;;;;;;1.59;100.00;97979.77;1762376;80;22607;-87
2021/11/27 10:02:54;;;;;;;;;;;;;;;1.54;100.00;97984.59;1760872;80;20319;-83
2021/11/27 10:05:20;;;;;;;;;;;;;;;1.57;100.00;97990.78;1759280;80;20198;-84
2021/11/27 10:07:48;;;;;;;;;;;;;;;1.64;100.00;97989.22;1760324;80;20143;-83
2021/11/27 10:10:15;;;;;;;;;;;;;;;1.56;100.00;97999.08;1757818;80;20703;-83
2021/11/27 10:12:45;;;;;;;;;;;;;;;1.61;100.00;97997.33;1738593;80;20826;-86
2021/11/27 10:15:11;;;;;;;;;;;;;;;1.67;100.00;98011.03;1763757;80;20466;-85
2021/11/27 10:17:36;;;;;;;;;;;;;;;1.68;100.00;98015.27;1732418;80;20790;-84
2021/11/27 10:20:06;;;;;;;;;;;;;;;1.77;100.00;98036.48;1736040;80;20203;-85
2021/11/27 10:22:42;;;;;;;;;;;;;;;1.71;100.00;98021.48;1760322;80;20183;-88
2021/11/27 10:25:31;;;;;;;;;;;;;;;1.78;100.00;98018.58;1765815;80;21001;-86
2021/11/27 10:28:15;;;;;;;;;;;;;;;1.89;100.00;98027.11;1732164;80;38570;-88
2021/11/27 10:30:46;;;;;;;;;;;;;;;1.90;100.00;98041.77;1730148;80;20159;-86
2021/11/27 10:33:12;;;;;;;;;;;;;;;1.70;100.00;98032.84;1756493;80;20287;-87
2021/11/27 10:35:49;;;;;;;;;;;;;;;1.66;100.00;98045.81;1741852;80;20202;-90
2021/11/27 10:38:16;;;;;;;;;;;;;;;1.65;100.00;98048.09;1758302;80;21046;-90
2021/11/27 10:40:45;;;;;;;;;;;;;;;1.75;100.00;98054.01;1754755;79;20124;-89
2021/11/27 10:43:12;;;;;;;;;;;;;;;1.74;100.00;98038.08;1762083;80;20972;-88
2021/11/27 10:45:41;;;;;;;;;;;;;;;1.65;100.00;98066.31;1765513;80;20214;-87
2021/11/27 10:48:16;;;;;;;;;;;;;;;1.52;100.00;98061.47;1757051;79;20146;-87
2021/11/27 10:50:53;;;;;;;;;;;;;;;1.55;100.00;98073.37;1756623;79;20477;-88
2021/11/27 10:53:25;;;;;;;;;;;;;;;1.41;100.00;98076.84;1760307;79;20309;-87
2021/11/27 10:55:51;;;;;;;;;;;;;;;1.52;100.00;98064.56;1761326;80;20216;-88
2021/11/27 10:58:19;;;;;;;;;;;;;;;1.52;100.00;98071.06;1757573;80;20156;-88
2021/11/27 11:00:48;;;;;;;;;;;;;;;1.65;100.00;98070.21;1757222;79;20446;-87
2021/11/27 11:03:26;;;;;;;;;;;;;;;1.66;100.00;98073.13;1754418;79;21033;-86
2021/11/27 11:05:54;;;;;;;;;;;;;;;1.68;100.00;98070.38;1760533;79;20263;-85
2021/11/27 11:08:34;;;;;;;;;;;;;;;1.65;100.00;98084.98;1758701;80;20193;-89
2021/11/27 11:11:05;;;;;;;;;;;;;;;1.81;100.00;98084.31;1757767;80;20130;-89
2021/11/27 11:13:32;;;;;;;;;;;;;;;1.68;100.00;98100.30;1757506;80;20146;-89
2021/11/27 11:15:59;;;;;;;;;;;;;;;1.62;100.00;98088.72;1730468;80;21128;-88
2021/11/27 11:18:27;;;;;;;;;;;;;;;1.70;100.00;98096.58;1725288;80;20175;-88
2021/11/27 11:20:55;;;;;;;;;;;;;;;1.74;100.00;98088.83;1756139;80;20137;-88
2021/11/27 11:23:29;;;;;;;;;;;;;;;1.78;100.00;98096.64;1758871;79;20600;-88
2021/11/27 11:26:10;;;;;;;;;;;;;;;1.74;100.00;98095.33;1759057;80;20169;-88
2021/11/27 11:28:50;;;;;;;;;;;;;;;1.85;100.00;98096.03;1755615;80;21152;-88
2021/11/27 11:31:21;;;;;;;;;;;;;;;1.92;100.00;98091.88;1753155;80;20209;-87
2021/11/27 11:33:58;;;;;;;;;;;;;;;1.93;100.00;98097.42;1765273;80;20142;-87
2021/11/27 11:36:25;;;;;;;;;;;;;;;2.07;100.00;98105.97;1738180;80;20190;-87
2021/11/27 11:38:56;;;;;;;;;;;;;;;2.15;100.00;98102.11;1766581;79;20181;-87
2021/11/27 11:41:24;;;;;;;;;;;;;;;2.14;100.00;98100.96;1754097;79;20137;-87
2021/11/27 11:43:50;;;;;;;;;;;;;;;2.41;100.00;98106.50;1761276;79;20221;-87
2021/11/27 11:46:18;;;;;;;;;;;;;;;2.38;100.00;98108.12;1759543;80;20165;-87
2021/11/27 11:48:53;;;;;;;;;;;;;;;2.38;100.00;98108.12;1760152;80;20169;-89
2021/11/27 11:51:44;;;;;;;;;;;;;;;2.45;100.00;98117.42;1761078;80;20529;-86
2021/11/27 11:54:10;;;;;;;;;;;;;;;2.26;100.00;98111.45;1766932;80;20115;-86
2021/11/27 11:56:37;;;;;;;;;;;;;;;2.28;100.00;98109.50;1772023;79;20818;-90
2021/11/27 11:59:22;;;;;;;;;;;;;;;2.36;100.00;98112.64;1763256;80;20145;-86
2021/11/27 12:02:15;;;;;;;;;;;;;;;2.32;100.00;98117.35;1762578;80;20126;-87
2021/11/27 12:05:09;;;;;;;;;;;;;;;2.26;100.00;98127.08;1762551;79;20211;-85
2021/11/27 12:07:47;;;;;;;;;;;;;;;2.23;100.00;98129.98;1769291;80;21168;-86
2021/11/27 12:10:21;;;;;;;;;;;;;;;2.29;100.00;98127.27;1765005;80;20184;-87
2021/11/27 12:13:10;;;;;;;;;;;;;;;2.33;100.00;98123.37;1738489;80;20180;-86
2021/11/27 12:15:41;;;;;;;;;;;;;;;2.36;100.00;98128.77;1742807;80;20175;-85
2021/11/27 12:18:20;;;;;;;;;;;;;;;2.40;100.00;98127.00;1756208;79;20167;-87
2021/11/27 12:20:57;;;;;;;;;;;;;;;2.62;100.00;98135.27;1767730;80;20133;-85
2021/11/27 12:23:34;;;;;;;;;;;;;;;2.59;100.00;98140.78;1759706;80;20155;-86
2021/11/27 12:26:14;;;;;;;;;;;;;;;2.60;100.00;98133.31;1766142;80;21055;-86
2021/11/27 12:28:47;;;;;;;;;;;;;;;2.60;100.00;98137.22;1760931;80;20204;-86
2021/11/27 12:31:15;;;;;;;;;;;;;;;2.62;100.00;98131.36;1750930;80;20210;-87
2021/11/27 12:33:58;;;;;;;;;;;;;;;2.64;100.00;98136.75;1711979;82;22433;-87
2021/11/27 12:36:32;;;;;;;;;;;;;;;2.74;100.00;98136.63;1711975;81;20174;-87
2021/11/27 12:39:10;;;;;;;;;;;;;;;2.71;100.00;98140.84;1710553;83;20280;-86
2021/11/27 12:41:49;;;;;;;;;;;;;;;2.86;100.00;98145.80;1710275;83;20244;-86
2021/11/27 12:44:24;;;;;;;;;;;;;;;2.76;100.00;98159.44;1708002;83;20892;-87
2021/11/27 12:46:59;;;;;;;;;;;;;;;2.91;100.00;98161.48;1711576;83;21110;-87
2021/11/27 12:49:34;;;;;;;;;;;;;;;2.92;100.00;98160.48;1711679;81;20136;-86
2021/11/27 12:52:19;;;;;;;;;;;;;;;2.88;100.00;98162.09;1709355;83;20711;-86
2021/11/27 12:54:48;;;;;;;;;;;;;;;2.84;100.00;98147.77;1710478;83;20545;-87
2021/11/27 12:57:16;;;;;;;;;;;;;;;2.79;100.00;98155.21;1694554;83;20199;-85